Time;durP1;ratioP1;P1;durP2;ratioP2;P2;SDS_P1;SDS_P2;PMS_P1;PMS_P2;Temp;Humidity;BMP_temperature;BMP_pressure;BME280_temperature;BME280_humidity;BME280_pressure;Samples;Min_cycle;Max_cycle;Signal;HPM_P1;HPM_P2
2023/01/13 00:00:20;;;;;;;13.67;11.23;;;;;;;7.26;100.00;102160.41;2089157;28;20638;-58
2023/01/13 00:01:23;;;;;;;11.80;10.60;;;;;;;7.27;100.00;102161.16;2097031;28;20188;-57
2023/01/13 00:02:24;;;;;;;12.10;10.80;;;;;;;7.32;100.00;102158.09;2097608;28;20235;-58
2023/01/13 00:03:24;;;;;;;12.67;11.17;;;;;;;7.32;100.00;102158.09;2097499;28;20192;-58
2023/01/13 00:04:25;;;;;;;11.93;10.33;;;;;;;7.37;100.00;102155.00;2102300;28;20209;-58
2023/01/13 00:05:26;;;;;;;13.30;10.97;;;;;;;7.38;100.00;102157.41;2101346;28;20712;-57
2023/01/13 00:06:28;;;;;;;12.93;11.30;;;;;;;7.34;100.00;102156.56;2099769;28;20258;-57
2023/01/13 00:07:28;;;;;;;12.38;10.07;;;;;;;6.72;100.00;102058.03;2105720;28;20183;-58
2023/01/13 00:08:29;;;;;;;12.07;10.77;;;;;;;7.40;100.00;102157.03;2105705;28;20179;-57
2023/01/13 00:09:29;;;;;;;12.50;10.60;;;;;;;7.36;100.00;102154.22;2106239;28;20183;-58
2023/01/13 00:10:30;;;;;;;11.83;10.63;;;;;;;7.35;100.00;102149.91;2097919;28;20262;-57
2023/01/13 00:11:30;;;;;;;11.70;10.20;;;;;;;7.31;100.00;102151.81;2103520;28;20234;-58
2023/01/13 00:12:31;;;;;;;12.37;10.77;;;;;;;7.21;100.00;102162.66;2100106;28;20195;-58
2023/01/13 00:13:34;;;;;;;13.03;10.40;;;;;;;7.23;100.00;102165.88;2097420;28;20191;-58
2023/01/13 00:14:37;;;;;;;12.50;11.20;;;;;;;7.23;100.00;102163.13;2100814;28;20672;-58
2023/01/13 00:15:37;;;;;;;12.57;10.93;;;;;;;7.19;100.00;102160.31;2102498;28;20182;-57
2023/01/13 00:16:38;;;;;;;12.40;10.53;;;;;;;7.28;100.00;102173.81;2096912;28;20262;-58
2023/01/13 00:17:38;;;;;;;13.03;10.93;;;;;;;6.94;100.00;102119.75;2097079;28;20741;-58
2023/01/13 00:18:39;;;;;;;12.40;10.83;;;;;;;7.29;100.00;102164.38;2097737;28;20215;-58
2023/01/13 00:19:39;;;;;;;12.47;11.17;;;;;;;6.59;100.00;102064.94;2097474;28;20184;-58
2023/01/13 00:20:40;;;;;;;11.87;10.50;;;;;;;7.22;100.00;102158.78;2096755;28;20289;-58
2023/01/13 00:21:40;;;;;;;12.07;10.73;;;;;;;7.30;100.00;102169.53;2102427;28;20187;-57
2023/01/13 00:22:41;;;;;;;12.37;10.73;;;;;;;7.33;100.00;102170.75;2105404;28;20644;-58
2023/01/13 00:23:42;;;;;;;12.53;9.97;;;;;;;7.32;100.00;102169.13;2102857;28;20195;-57
2023/01/13 00:24:43;;;;;;;11.57;10.38;;;;;;;7.33;100.00;102170.75;2097335;28;20692;-58
2023/01/13 00:25:43;;;;;;;12.83;10.70;;;;;;;7.30;100.00;102175.03;2096489;28;20608;-58
2023/01/13 00:26:43;;;;;;;13.33;10.50;;;;;;;7.31;100.00;102168.34;2097232;28;20210;-58
2023/01/13 00:27:44;;;;;;;12.77;10.40;;;;;;;7.35;100.00;102171.97;2097336;28;20180;-58
2023/01/13 00:28:44;;;;;;;14.40;11.07;;;;;;;7.34;100.00;102169.56;2103819;28;20248;-58
2023/01/13 00:29:45;;;;;;;12.50;10.10;;;;;;;7.33;100.00;102165.22;2100379;28;20211;-58
2023/01/13 00:30:45;;;;;;;12.80;10.40;;;;;;;7.37;100.00;102171.56;2096764;28;20214;-58
2023/01/13 00:31:48;;;;;;;10.60;9.37;;;;;;;7.40;100.00;102165.31;2097156;28;20294;-57
2023/01/13 00:32:48;;;;;;;10.82;9.63;;;;;;;7.39;100.00;102161.75;2097088;28;20264;-58
2023/01/13 00:33:49;;;;;;;10.67;9.57;;;;;;;7.13;100.00;102119.63;2097103;28;20221;-58
2023/01/13 00:34:50;;;;;;;10.43;9.30;;;;;;;6.78;100.00;102081.34;2097433;28;20188;-57
2023/01/13 00:35:58;;;;;;;10.57;9.47;;;;;;;6.50;100.00;102047.06;2096653;28;20194;-57
2023/01/13 00:36:58;;;;;;;10.90;9.50;;;;;;;7.32;100.00;102175.44;2097103;28;20264;-58
2023/01/13 00:37:59;;;;;;;9.70;8.70;;;;;;;7.31;100.00;102175.81;2104346;28;20248;-58
2023/01/13 00:38:59;;;;;;;11.30;9.40;;;;;;;7.35;100.00;102174.72;2099956;28;20686;-57
2023/01/13 00:40:00;;;;;;;10.07;8.83;;;;;;;7.35;100.00;102171.97;2101805;28;20214;-58
2023/01/13 00:41:12;;;;;;;11.10;9.33;;;;;;;6.83;100.00;102094.78;2104804;28;20205;-57
2023/01/13 00:43:33;;;;;;;10.57;8.77;;;;;;;7.41;100.00;102172.41;2097260;28;20198;-58
2023/01/13 00:44:33;;;;;;;10.82;9.07;;;;;;;7.38;100.00;102170.41;2101313;28;20671;-58
2023/01/13 00:45:34;;;;;;;10.40;9.17;;;;;;;7.38;100.00;102170.41;2103786;28;20560;-58
2023/01/13 00:46:34;;;;;;;11.13;9.87;;;;;;;7.39;100.00;102172.00;2103112;28;20189;-58
2023/01/13 00:47:34;;;;;;;11.97;9.57;;;;;;;7.37;100.00;102168.81;2096974;28;20626;-57
2023/01/13 00:48:36;;;;;;;12.13;9.97;;;;;;;7.13;100.00;102145.22;2103507;28;20251;-58
2023/01/13 00:49:37;;;;;;;11.55;10.05;;;;;;;7.31;100.00;102167.53;2097332;28;20271;-58
2023/01/13 00:50:37;;;;;;;12.17;10.57;;;;;;;7.30;100.00;102172.28;2097118;28;20195;-58
2023/01/13 00:51:37;;;;;;;12.23;10.07;;;;;;;7.25;100.00;102172.59;2102139;28;20275;-58
2023/01/13 00:52:38;;;;;;;11.63;10.20;;;;;;;7.17;100.00;102157.09;2105280;28;20182;-58
2023/01/13 00:53:41;;;;;;;11.63;10.40;;;;;;;7.27;100.00;102173.00;2102609;28;20609;-57
2023/01/13 00:54:42;;;;;;;13.30;11.07;;;;;;;7.07;100.00;102134.91;2099186;28;20186;-58
2023/01/13 00:55:42;;;;;;;11.70;10.50;;;;;;;7.31;100.00;102167.53;2104889;28;20212;-57
2023/01/13 00:56:43;;;;;;;12.43;10.37;;;;;;;7.30;100.00;102164.00;2105430;28;20190;-57
2023/01/13 00:57:43;;;;;;;13.07;10.80;;;;;;;7.30;100.00;102163.19;2097138;28;20202;-58
2023/01/13 00:58:45;;;;;;;13.40;11.77;;;;;;;7.29;100.00;102156.09;2097022;28;20218;-58
2023/01/13 00:59:46;;;;;;;15.10;12.98;;;;;;;6.88;100.00;102088.94;2096951;28;20679;-58
2023/01/13 01:00:47;;;;;;;16.35;13.50;;;;;;;7.33;100.00;102154.97;2096093;28;20191;-58
2023/01/13 01:01:47;;;;;;;16.37;14.00;;;;;;;7.32;100.00;102167.16;2096064;28;20713;-57
2023/01/13 01:02:48;;;;;;;16.77;13.70;;;;;;;7.36;100.00;102158.94;2096682;28;20182;-58
2023/01/13 01:03:52;;;;;;;15.93;13.63;;;;;;;7.29;100.00;102156.09;2096829;28;20262;-57
2023/01/13 01:04:53;;;;;;;17.98;14.23;;;;;;;7.36;100.00;102158.94;2096669;28;20212;-57
2023/01/13 01:05:54;;;;;;;16.30;13.70;;;;;;;7.38;100.00;102162.13;2097041;28;20167;-57
2023/01/13 01:06:54;;;;;;;17.73;14.93;;;;;;;7.40;100.00;102157.03;2096543;28;20641;-57
2023/01/13 01:07:55;;;;;;;18.23;14.83;;;;;;;7.40;100.00;102155.09;2097285;28;20681;-58
2023/01/13 01:08:55;;;;;;;17.53;15.03;;;;;;;7.41;100.00;102162.19;2097119;28;20199;-58
2023/01/13 01:09:56;;;;;;;16.80;14.80;;;;;;;7.43;100.00;102154.31;2101391;28;20578;-58
2023/01/13 01:11:08;;;;;;;17.50;14.33;;;;;;;7.42;100.00;102149.16;2101354;28;20194;-57
2023/01/13 01:12:08;;;;;;;19.25;15.10;;;;;;;7.42;100.00;102151.94;2100843;28;20344;-57
2023/01/13 01:13:13;;;;;;;18.57;15.70;;;;;;;7.42;100.00;102158.25;2102830;28;20186;-58
2023/01/13 01:14:14;;;;;;;17.50;14.98;;;;;;;7.43;100.00;102156.31;2100997;28;20186;-58
2023/01/13 01:15:14;;;;;;;18.17;15.40;;;;;;;7.45;100.00;102149.25;2096196;28;20187;-57
2023/01/13 01:16:16;;;;;;;18.70;15.60;;;;;;;7.48;100.00;102156.75;2096881;28;20180;-57
2023/01/13 01:17:17;;;;;;;17.40;15.35;;;;;;;7.43;100.00;102143.28;2105046;28;20239;-58
2023/01/13 01:18:17;;;;;;;20.70;16.67;;;;;;;7.54;100.00;102158.00;2105262;28;20235;-58
2023/01/13 01:19:18;;;;;;;19.90;16.93;;;;;;;7.52;100.00;102151.28;2096209;28;20191;-57
2023/01/13 01:20:18;;;;;;;17.70;15.03;;;;;;;7.47;100.00;102137.81;2091959;28;20234;-58
2023/01/13 01:21:20;;;;;;;19.33;16.43;;;;;;;7.54;100.00;102146.97;2099741;28;20267;-58
2023/01/13 01:22:20;;;;;;;19.60;15.80;;;;;;;7.53;100.00;102144.59;2102846;28;20578;-57
2023/01/13 01:23:21;;;;;;;19.17;16.53;;;;;;;7.50;100.00;102148.09;2096708;28;20202;-57
2023/01/13 01:24:21;;;;;;;17.73;15.83;;;;;;;7.52;100.00;102145.75;2097453;28;20193;-57
2023/01/13 01:25:22;;;;;;;18.83;16.80;;;;;;;7.46;100.00;102137.03;2096686;28;20868;-58
2023/01/13 01:26:24;;;;;;;19.00;16.23;;;;;;;7.18;100.00;102100.78;2103656;28;20244;-58
2023/01/13 01:27:24;;;;;;;20.25;15.80;;;;;;;7.45;100.00;102140.16;2104939;28;20222;-57
2023/01/13 01:28:25;;;;;;;21.40;16.47;;;;;;;7.48;100.00;102142.97;2100341;28;20196;-57
2023/01/13 01:29:25;;;;;;;18.93;16.07;;;;;;;7.48;100.00;102145.72;2100268;28;20211;-57
2023/01/13 01:30:26;;;;;;;18.27;16.27;;;;;;;7.47;100.00;102140.56;2102612;28;20178;-57
2023/01/13 01:31:31;;;;;;;19.00;16.20;;;;;;;7.46;100.00;102139.78;2096192;28;20203;-57
2023/01/13 01:32:33;;;;;;;18.30;15.82;;;;;;;7.30;100.00;102121.84;2096562;28;20164;-57
2023/01/13 01:33:34;;;;;;;19.27;17.02;;;;;;;7.38;100.00;102131.81;2097504;28;20259;-57
2023/01/13 01:34:34;;;;;;;18.10;16.17;;;;;;;7.34;100.00;102131.72;2105729;28;20187;-58
2023/01/13 01:35:39;;;;;;;19.70;16.10;;;;;;;7.40;100.00;102149.56;2097348;28;20679;-57
2023/01/13 01:36:39;;;;;;;20.77;16.55;;;;;;;7.34;100.00;102133.72;2096716;28;20190;-57
2023/01/13 01:37:39;;;;;;;19.43;16.40;;;;;;;7.39;100.00;102141.66;2096715;28;20199;-58
2023/01/13 01:38:40;;;;;;;22.17;16.90;;;;;;;7.39;100.00;102144.41;2096613;28;20243;-58
2023/01/13 01:39:41;;;;;;;18.23;15.80;;;;;;;7.38;100.00;102140.84;2099971;28;20243;-58
2023/01/13 01:40:41;;;;;;;19.33;16.73;;;;;;;7.40;100.00;102141.28;2102914;28;20182;-57
2023/01/13 01:43:57;;;;;;;18.43;15.53;;;;;;;7.42;100.00;102143.66;2096736;28;20182;-58
2023/01/13 01:44:41;;;;;;;19.42;15.98;;;;;;;7.39;100.00;102141.66;2096777;28;20199;-57
2023/01/13 01:45:42;;;;;;;19.42;16.30;;;;;;;7.36;100.00;102136.88;2096116;28;20191;-58
2023/01/13 01:46:43;;;;;;;18.60;15.90;;;;;;;7.38;100.00;102134.56;2100327;28;20313;-57
2023/01/13 01:47:49;;;;;;;17.27;15.40;;;;;;;7.36;100.00;102139.63;2105247;28;20659;-57
2023/01/13 01:48:50;;;;;;;18.02;15.77;;;;;;;7.28;100.00;102127.72;2102463;28;20175;-57
2023/01/13 01:49:50;;;;;;;19.02;15.50;;;;;;;7.35;100.00;102144.38;2096926;28;20673;-58
2023/01/13 01:50:51;;;;;;;19.07;15.80;;;;;;;7.37;100.00;102144.78;2095961;28;20248;-57
2023/01/13 01:52:02;;;;;;;18.73;16.07;;;;;;;7.38;100.00;102140.84;2097156;28;20206;-58
2023/01/13 01:53:15;;;;;;;20.10;16.85;;;;;;;7.38;100.00;102135.34;2097195;28;20171;-57
2023/01/13 01:54:25;;;;;;;18.15;15.75;;;;;;;7.20;100.00;102108.69;2097367;28;20611;-57
2023/01/13 01:55:29;;;;;;;20.23;16.88;;;;;;;7.34;100.00;102137.25;2105052;28;20167;-58
2023/01/13 01:56:32;;;;;;;19.00;15.85;;;;;;;6.74;100.00;102043.88;2097058;28;20184;-58
2023/01/13 01:57:48;;;;;;;17.05;15.20;;;;;;;7.29;100.00;102114.72;2103834;28;20648;-57
2023/01/13 01:58:51;;;;;;;20.30;16.08;;;;;;;6.99;100.00;102078.91;2104678;28;20250;-57
2023/01/13 01:59:52;;;;;;;17.83;15.77;;;;;;;7.31;100.00;102126.97;2098597;28;20196;-57
2023/01/13 02:00:52;;;;;;;17.63;15.70;;;;;;;7.15;100.00;102104.31;2097469;28;20290;-57
2023/01/13 02:01:53;;;;;;;19.03;17.00;;;;;;;7.28;100.00;102138.75;2098543;28;20194;-58
2023/01/13 02:02:54;;;;;;;18.40;16.40;;;;;;;6.78;100.00;102044.72;2102897;28;20194;-57
2023/01/13 02:04:04;;;;;;;20.03;16.47;;;;;;;7.24;100.00;102115.06;2107025;28;20197;-57
2023/01/13 02:05:04;;;;;;;19.33;16.45;;;;;;;7.31;100.00;102126.16;2102671;28;20192;-58
2023/01/13 02:06:05;;;;;;;18.60;15.60;;;;;;;7.32;100.00;102125.00;2097633;28;20680;-57
2023/01/13 02:07:06;;;;;;;19.00;16.53;;;;;;;7.27;100.00;102122.56;2099966;28;20179;-57
2023/01/13 02:08:09;;;;;;;17.93;15.57;;;;;;;7.27;100.00;102114.28;2106275;28;20718;-57
2023/01/13 02:09:10;;;;;;;19.33;16.08;;;;;;;7.31;100.00;102131.69;2098901;28;20182;-58
2023/01/13 02:10:17;;;;;;;18.57;16.53;;;;;;;6.93;100.00;102058.31;2098536;28;20195;-57
2023/01/13 02:12:54;;;;;;;18.60;15.85;;;;;;;7.29;100.00;102125.75;2098150;28;20165;-58
2023/01/13 02:13:54;;;;;;;18.90;16.05;;;;;;;7.27;100.00;102125.31;2101246;28;20664;-57
2023/01/13 02:14:59;;;;;;;19.63;16.97;;;;;;;7.21;100.00;102116.59;2098041;28;20538;-57
2023/01/13 02:16:14;;;;;;;19.85;16.25;;;;;;;7.17;100.00;102106.72;2089577;28;20379;-57
2023/01/13 02:17:20;;;;;;;19.10;15.93;;;;;;;7.26;100.00;102123.75;2106923;28;20227;-58
2023/01/13 02:18:44;;;;;;;19.08;16.50;;;;;;;6.88;100.00;102064.16;2107208;28;20574;-57
2023/01/13 02:20:26;;;;;;;20.15;16.23;;;;;;;7.26;100.00;102120.97;2099572;28;20270;-57
2023/01/13 02:21:39;;;;;;;18.58;15.40;;;;;;;7.25;100.00;102122.97;2094134;28;20289;-58
2023/01/13 02:22:54;;;;;;;17.27;15.23;;;;;;;7.09;100.00;102096.72;2104603;28;20632;-58
2023/01/13 02:25:56;;;;;;;17.85;14.50;;;;;;;7.24;100.00;102120.56;2103637;28;20335;-57
2023/01/13 02:27:06;;;;;;;17.48;14.32;;;;;;;7.24;100.00;102113.09;2098155;28;20191;-58
2023/01/13 02:28:18;;;;;;;17.08;14.65;;;;;;;7.20;100.00;102115.03;2098101;28;20270;-58
2023/01/13 02:33:10;;;;;;;17.60;14.13;;;;;;;7.17;100.00;102103.94;2098225;28;20183;-58
2023/01/13 02:34:23;;;;;;;15.75;13.80;;;;;;;7.03;100.00;102078.94;2098350;28;20199;-58
2023/01/13 02:35:29;;;;;;;15.88;13.95;;;;;;;6.83;100.00;102058.19;2097834;28;20620;-57
2023/01/13 02:36:33;;;;;;;15.52;13.70;;;;;;;7.23;100.00;102114.25;2097696;28;20411;-58
2023/01/13 02:37:39;;;;;;;16.63;14.07;;;;;;;6.51;100.00;102019.16;2104198;28;20528;-58
2023/01/13 02:38:51;;;;;;;16.02;14.18;;;;;;;7.26;100.00;102119.03;2100797;28;20673;-57
2023/01/13 02:40:00;;;;;;;14.88;13.27;;;;;;;7.30;100.00;102116.31;2098530;28;20206;-58
2023/01/13 02:44:23;;;;;;;15.75;13.10;;;;;;;7.38;100.00;102118.00;2106611;28;20202;-57
2023/01/13 02:45:29;;;;;;;14.88;13.00;;;;;;;7.36;100.00;102117.56;2101849;28;20669;-58
2023/01/13 02:46:35;;;;;;;16.08;12.70;;;;;;;7.34;100.00;102117.16;2101515;28;20254;-58
2023/01/13 02:47:40;;;;;;;14.43;12.70;;;;;;;7.34;100.00;102109.66;2106557;28;20192;-57
2023/01/13 02:48:45;;;;;;;14.98;13.15;;;;;;;6.67;100.00;102005.22;2106128;28;20339;-58
2023/01/13 02:49:49;;;;;;;14.18;12.68;;;;;;;7.40;100.00;102115.66;2104176;28;20633;-57
2023/01/13 02:50:58;;;;;;;15.88;12.77;;;;;;;6.73;100.00;102009.22;2097382;28;20187;-58
2023/01/13 02:52:11;;;;;;;15.77;12.73;;;;;;;7.39;100.00;102116.84;2104360;28;20209;-58
2023/01/13 02:53:19;;;;;;;14.38;12.30;;;;;;;7.38;100.00;102118.78;2098032;28;20203;-58
2023/01/13 02:54:28;;;;;;;14.45;12.88;;;;;;;7.42;100.00;102122.38;2097985;28;20663;-57
2023/01/13 02:55:41;;;;;;;14.68;13.02;;;;;;;6.92;100.00;102053.19;2099476;28;20183;-58
2023/01/13 02:56:46;;;;;;;14.43;12.30;;;;;;;6.96;100.00;102046.56;2105705;28;20179;-58
2023/01/13 02:57:48;;;;;;;14.23;12.32;;;;;;;7.21;100.00;102066.16;2106402;28;20178;-57
2023/01/13 02:58:50;;;;;;;15.88;12.88;;;;;;;6.96;100.00;102037.47;2105237;28;20649;-58
2023/01/13 02:59:54;;;;;;;14.38;12.57;;;;;;;7.46;100.00;102108.63;2098092;28;20194;-57
2023/01/13 03:00:54;;;;;;;14.68;13.07;;;;;;;7.46;100.00;102116.91;2106175;28;20175;-57
2023/01/13 03:01:56;;;;;;;14.63;12.57;;;;;;;7.44;100.00;102113.75;2098448;28;20186;-58
2023/01/13 03:02:57;;;;;;;15.45;13.80;;;;;;;7.44;100.00;102111.00;2104860;28;20284;-57
2023/01/13 03:03:57;;;;;;;14.73;13.07;;;;;;;7.42;100.00;102118.81;2100649;28;20203;-58
2023/01/13 03:04:59;;;;;;;14.30;12.80;;;;;;;7.39;100.00;102119.59;2102518;28;20280;-57
2023/01/13 03:06:31;;;;;;;14.82;13.20;;;;;;;7.40;100.00;102115.66;2105533;28;20183;-58
2023/01/13 03:07:44;;;;;;;14.15;12.48;;;;;;;7.43;100.00;102118.47;2099526;28;20187;-58
2023/01/13 03:08:53;;;;;;;15.02;12.70;;;;;;;7.35;100.00;102107.72;2104959;28;20202;-58
2023/01/13 03:10:14;;;;;;;15.65;13.30;;;;;;;7.39;100.00;102122.34;2101230;28;20195;-58
2023/01/13 03:11:17;;;;;;;17.55;13.35;;;;;;;7.39;100.00;102116.84;2105864;28;20653;-58
2023/01/13 03:12:54;;;;;;;14.82;13.23;;;;;;;7.35;100.00;102125.06;2097792;28;20198;-58
2023/01/13 03:14:33;;;;;;;14.70;13.05;;;;;;;7.37;100.00;102127.44;2100945;28;20211;-57
2023/01/13 03:15:52;;;;;;;13.80;12.38;;;;;;;7.32;100.00;102113.97;2064897;28;20232;-58
2023/01/13 03:17:17;;;;;;;15.45;12.75;;;;;;;7.31;100.00;102126.16;2062993;28;20242;-58
2023/01/13 03:18:22;;;;;;;14.75;12.63;;;;;;;7.27;100.00;102120.63;2056264;28;20187;-58
2023/01/13 03:19:49;;;;;;;15.68;13.43;;;;;;;7.26;100.00;102119.03;2063718;28;20648;-57
2023/01/13 03:21:27;;;;;;;15.45;13.43;;;;;;;7.27;100.00;102119.81;2061350;28;20285;-58
2023/01/13 03:22:41;;;;;;;15.45;13.35;;;;;;;7.26;100.00;102129.25;2066321;28;20249;-58
2023/01/13 03:24:01;;;;;;;16.42;13.45;;;;;;;7.14;100.00;102105.50;2090285;28;20260;-58
2023/01/13 03:25:17;;;;;;;16.20;13.80;;;;;;;6.62;100.00;102033.09;2089108;28;20179;-58
2023/01/13 03:26:20;;;;;;;15.05;13.43;;;;;;;7.25;100.00;102117.44;2088788;28;20600;-58
2023/01/13 03:27:23;;;;;;;15.15;13.18;;;;;;;7.26;100.00;102119.03;2089447;28;20556;-58
2023/01/13 03:28:29;;;;;;;14.98;13.05;;;;;;;7.25;100.00;102117.44;2089052;28;20235;-57
2023/01/13 03:29:56;;;;;;;15.82;12.90;;;;;;;7.25;100.00;102120.22;2089292;28;20642;-58
2023/01/13 03:31:05;;;;;;;15.57;13.52;;;;;;;7.11;100.00;102100.72;2079368;28;20169;-58
2023/01/13 03:32:18;;;;;;;16.38;14.13;;;;;;;7.25;100.00;102120.22;2081849;28;20209;-57
2023/01/13 03:33:33;;;;;;;16.77;13.48;;;;;;;7.25;100.00;102120.22;2095878;28;20175;-57
2023/01/13 03:34:42;;;;;;;14.85;12.77;;;;;;;7.17;100.00;102109.47;2091199;28;20614;-57
2023/01/13 03:35:46;;;;;;;15.60;13.88;;;;;;;7.23;100.00;102121.75;2096416;28;20175;-58
2023/01/13 03:36:51;;;;;;;16.63;14.30;;;;;;;7.24;100.00;102117.81;2095225;28;20175;-58
2023/01/13 03:38:04;;;;;;;16.33;14.38;;;;;;;7.24;100.00;102113.09;2088784;28;20184;-58
2023/01/13 03:39:12;;;;;;;15.07;13.15;;;;;;;7.25;100.00;102120.22;2088756;28;20180;-58
2023/01/13 03:40:25;;;;;;;15.10;13.50;;;;;;;6.86;100.00;102049.16;2089353;28;20249;-57
2023/01/13 03:41:40;;;;;;;14.48;12.52;;;;;;;7.06;100.00;102090.00;2088558;28;20172;-57
2023/01/13 03:44:20;;;;;;;15.85;13.75;;;;;;;7.24;100.00;102124.13;2088981;28;20523;-57
2023/01/13 03:44:23;;;;;;;15.98;12.82;;;;;;;7.20;100.00;102112.25;2093848;28;20683;-57
2023/01/13 03:45:23;;;;;;;15.07;12.57;;;;;;;7.24;100.00;102120.56;2096440;28;20210;-57
2023/01/13 03:46:42;;;;;;;16.73;13.77;;;;;;;7.26;100.00;102118.22;2092037;28;20200;-57
2023/01/13 03:47:54;;;;;;;16.75;13.45;;;;;;;7.18;100.00;102111.81;2079921;28;20203;-57
2023/01/13 03:48:56;;;;;;;16.08;13.25;;;;;;;6.66;100.00;102033.94;2089765;28;20192;-57
2023/01/13 03:50:07;;;;;;;14.95;13.20;;;;;;;7.23;100.00;102121.75;2091664;28;20208;-57
2023/01/13 03:51:15;;;;;;;15.65;13.05;;;;;;;7.23;100.00;102121.75;2088592;28;20199;-58
2023/01/13 03:52:27;;;;;;;14.00;12.48;;;;;;;6.95;100.00;102080.81;2089097;28;20200;-58
2023/01/13 03:53:50;;;;;;;15.05;12.77;;;;;;;7.18;100.00;102114.56;2088948;28;20828;-57
2023/01/13 03:54:57;;;;;;;15.82;12.60;;;;;;;7.25;100.00;102127.66;2088933;28;20261;-57
2023/01/13 03:56:06;;;;;;;14.80;12.45;;;;;;;7.25;100.00;102119.41;2088312;28;20194;-58
2023/01/13 03:57:11;;;;;;;15.10;11.63;;;;;;;6.69;100.00;102045.00;2089005;28;20188;-58
2023/01/13 03:58:22;;;;;;;17.83;12.75;;;;;;;7.03;100.00;102092.72;2089181;28;20195;-57
2023/01/13 03:59:28;;;;;;;17.80;12.85;;;;;;;7.25;100.00;102130.44;2096450;28;20230;-58
2023/01/13 04:00:35;;;;;;;14.82;13.23;;;;;;;7.22;100.00;102123.69;2096996;28;20664;-58
2023/01/13 04:01:50;;;;;;;14.90;12.75;;;;;;;7.25;100.00;102133.19;2089912;28;20191;-58
2023/01/13 04:02:57;;;;;;;14.80;13.00;;;;;;;7.22;100.00;102126.47;2088993;28;20275;-57
2023/01/13 04:04:06;;;;;;;16.10;13.32;;;;;;;7.21;100.00;102127.63;2089091;28;20685;-57
2023/01/13 04:05:09;;;;;;;14.82;12.98;;;;;;;7.24;100.00;102128.84;2095598;28;20270;-57
2023/01/13 04:06:20;;;;;;;17.05;14.27;;;;;;;7.24;100.00;102128.84;2090423;28;20646;-58
2023/01/13 04:07:52;;;;;;;17.90;13.55;;;;;;;7.22;100.00;102128.44;2088921;28;20687;-57
2023/01/13 04:09:01;;;;;;;14.13;12.57;;;;;;;7.23;100.00;102127.25;2088425;28;20211;-58
2023/01/13 04:10:06;;;;;;;15.85;12.82;;;;;;;7.22;100.00;102131.97;2088709;28;20152;-58
2023/01/13 04:11:31;;;;;;;16.95;12.75;;;;;;;7.20;100.00;102137.06;2096943;28;20172;-58
2023/01/13 04:13:01;;;;;;;14.80;13.20;;;;;;;7.23;100.00;102139.06;2095159;28;20219;-58
2023/01/13 04:14:03;;;;;;;16.55;13.80;;;;;;;6.66;100.00;102039.44;2092603;28;20265;-57
2023/01/13 04:15:04;;;;;;;14.82;13.18;;;;;;;7.22;100.00;102129.22;2096736;28;20195;-57
2023/01/13 04:16:10;;;;;;;16.43;13.87;;;;;;;7.24;100.00;102135.16;2093736;28;20190;-58
2023/01/13 04:17:11;;;;;;;15.63;13.35;;;;;;;7.19;100.00;102140.19;2044169;28;1401106;-58
2023/01/13 04:18:17;;;;;;;15.87;14.17;;;;;;;7.21;100.00;102141.41;2104690;28;20175;-58
2023/01/13 04:19:18;;;;;;;16.25;13.80;;;;;;;7.22;100.00;102142.22;2097276;28;20175;-57
2023/01/13 04:20:19;;;;;;;15.73;14.00;;;;;;;7.22;100.00;102134.72;2097414;28;20704;-58
2023/01/13 04:21:20;;;;;;;17.57;14.57;;;;;;;7.25;100.00;102141.47;2096308;28;20207;-58
2023/01/13 04:22:20;;;;;;;17.27;13.30;;;;;;;7.24;100.00;102131.59;2097299;28;20207;-58
2023/01/13 04:23:21;;;;;;;17.07;14.23;;;;;;;6.92;100.00;102092.56;2097462;28;20205;-58
2023/01/13 04:24:21;;;;;;;18.25;14.73;;;;;;;7.23;100.00;102141.81;2097454;28;20242;-57
2023/01/13 04:25:22;;;;;;;19.50;14.70;;;;;;;7.09;100.00;102114.09;2096922;28;20180;-57
2023/01/13 04:26:23;;;;;;;17.37;14.73;;;;;;;7.25;100.00;102133.19;2096849;28;20308;-57
2023/01/13 04:27:23;;;;;;;21.57;16.37;;;;;;;7.24;100.00;102134.38;2097328;28;20184;-57
2023/01/13 04:28:24;;;;;;;17.50;14.70;;;;;;;7.24;100.00;102137.13;2097648;28;20264;-58
2023/01/13 04:29:25;;;;;;;20.13;15.80;;;;;;;7.25;100.00;102138.69;2105367;28;20338;-57
2023/01/13 04:30:25;;;;;;;17.50;14.80;;;;;;;7.25;100.00;102139.50;2098922;28;20198;-57
2023/01/13 04:31:25;;;;;;;16.70;14.07;;;;;;;7.29;100.00;102139.56;2101093;28;20563;-58
2023/01/13 04:32:26;;;;;;;16.83;13.97;;;;;;;7.35;100.00;102135.28;2105591;28;20249;-57
2023/01/13 04:33:27;;;;;;;15.63;13.93;;;;;;;7.35;100.00;102135.28;2102457;28;20324;-58
2023/01/13 04:34:27;;;;;;;15.57;13.97;;;;;;;7.34;100.00;102137.25;2097452;28;20275;-58
2023/01/13 04:35:27;;;;;;;15.50;13.90;;;;;;;7.31;100.00;102131.69;2097198;28;20191;-57
2023/01/13 04:36:28;;;;;;;15.57;13.13;;;;;;;7.37;100.00;102141.22;2105591;28;20188;-58
2023/01/13 04:37:28;;;;;;;21.23;13.57;;;;;;;7.38;100.00;102146.38;2105693;28;20672;-57
2023/01/13 04:38:29;;;;;;;14.40;12.87;;;;;;;7.40;100.00;102149.56;2105661;28;20652;-57
2023/01/13 04:39:29;;;;;;;15.10;12.53;;;;;;;7.36;100.00;102145.97;2100241;28;20592;-57
2023/01/13 04:40:30;;;;;;;15.57;12.83;;;;;;;7.39;100.00;102139.69;2101784;28;20231;-58
2023/01/13 04:41:56;;;;;;;13.83;12.27;;;;;;;7.43;100.00;102146.03;2101848;28;20722;-58
2023/01/13 04:42:53;;;;;;;14.02;12.52;;;;;;;7.44;100.00;102133.06;2102074;28;20194;-57
2023/01/13 04:43:54;;;;;;;12.90;11.53;;;;;;;7.52;100.00;102151.28;2101444;28;20191;-57
2023/01/13 04:44:55;;;;;;;13.67;11.80;;;;;;;7.52;100.00;102145.75;2097204;28;20287;-58
2023/01/13 04:45:55;;;;;;;13.88;12.10;;;;;;;7.55;100.00;102153.28;2096462;28;20232;-57
2023/01/13 04:46:57;;;;;;;12.83;11.30;;;;;;;7.57;100.00;102156.47;2097053;28;20180;-58
2023/01/13 04:47:58;;;;;;;12.27;10.98;;;;;;;7.59;100.00;102151.38;2098302;28;20179;-57
2023/01/13 04:48:58;;;;;;;11.77;10.57;;;;;;;7.56;100.00;102150.16;2105427;28;20202;-58
2023/01/13 04:49:58;;;;;;;12.77;10.77;;;;;;;6.94;100.00;102042.59;2100240;28;20204;-57
2023/01/13 04:50:59;;;;;;;12.27;10.37;;;;;;;7.58;100.00;102149.78;2104589;28;20213;-57
2023/01/13 04:52:01;;;;;;;12.43;11.13;;;;;;;7.58;100.00;102150.56;2100881;28;20685;-57
2023/01/13 04:53:01;;;;;;;12.60;10.90;;;;;;;7.59;100.00;102151.38;2100500;28;20503;-58
2023/01/13 04:54:02;;;;;;;12.33;10.60;;;;;;;7.60;100.00;102153.78;2105370;28;20649;-57
2023/01/13 04:55:03;;;;;;;11.20;10.00;;;;;;;6.80;100.00;102023.09;2105174;28;20178;-62
2023/01/13 04:56:03;;;;;;;13.87;11.10;;;;;;;7.56;100.00;102154.88;2102842;28;20199;-65
2023/01/13 04:57:04;;;;;;;13.50;10.43;;;;;;;7.62;100.00;102147.84;2104661;28;20197;-64
2023/01/13 04:58:06;;;;;;;12.70;11.30;;;;;;;7.65;100.00;102152.63;2102608;28;20578;-62
2023/01/13 04:59:11;;;;;;;12.23;10.80;;;;;;;7.66;100.00;102148.69;2099160;28;20195;-65
2023/01/13 05:00:13;;;;;;;14.02;12.00;;;;;;;7.65;100.00;102153.44;2088320;28;20208;-63
2023/01/13 05:01:14;;;;;;;12.43;11.13;;;;;;;7.65;100.00;102147.13;2091393;28;20219;-62
2023/01/13 05:02:18;;;;;;;13.50;11.73;;;;;;;7.66;100.00;102143.97;2100999;28;20192;-59
2023/01/13 05:03:19;;;;;;;13.93;12.43;;;;;;;7.66;100.00;102155.03;2104743;28;20668;-61
2023/01/13 05:04:19;;;;;;;13.07;11.27;;;;;;;7.66;100.00;102148.69;2103991;28;20577;-61
2023/01/13 05:05:19;;;;;;;15.50;12.40;;;;;;;7.64;100.00;102151.81;2104541;28;20187;-59
2023/01/13 05:06:20;;;;;;;14.87;13.37;;;;;;;7.65;100.00;102145.16;2103867;28;20224;-58
2023/01/13 05:07:20;;;;;;;13.77;12.20;;;;;;;7.69;100.00;102145.97;2102947;28;20236;-57
2023/01/13 05:08:21;;;;;;;14.30;12.80;;;;;;;7.69;100.00;102139.69;2104643;28;20236;-58
2023/01/13 05:09:21;;;;;;;16.77;13.10;;;;;;;7.77;100.00;102146.84;2104523;28;20184;-57